PWSweather.com
Personal Weather Stations
Station Observations
01979
Ravne Pri CerknemSI 5282

Ravne Pri CerknemSI 5282

Lat: 46.1213916, Lon: 13.952774299999987

Elevation: 2244.094488

Station Type: Techo Line WS2307

www.vremenska.postaja.andre.si/

High Low Average
Temperature 39.9°F4.4°C 28.2°F-2.1°C 32.0°F0.0°C
Dew Point 39.9°F4.4°C 25.5°F-3.6°C 31.5°F-0.3°C
Winds 10.9 mph 17.5 kmh Calm Calm 3.0 mph SE4.8 kmh SE
Wind Gusts 14.3 mph23.0 kmh -- 6.0 mph9.7 kmh
Humidity 100% 81% 98%
Pressure 30.35 in1027.8 mb 30.29 in1025.7 mb -
Precipitation 0.00 in0.0 mm - -
Hour Temp Dew Point Humidity Winds Wind Gusts Pressure Precip Precip Rate Daily Precip Total
12:00 AM 31.6°F-0.2°C 26.5°F-3.1°C 81% 1.4 mph NW2.3 kmh NW 3.4 mph5.5 kmh 30.35 in1027.8 mb 0.00 in0.0 mm 0.00 in0.0 mm 0.00 in0.0 mm
12:10 AM 31.6°F-0.2°C 26.5°F-3.1°C 81% 4.8 mph N7.7 kmh N 8.5 mph13.7 kmh 30.35 in1027.8 mb 0.00 in0.0 mm 0.00 in0.0 mm 0.00 in0.0 mm
12:20 AM 31.5°F-0.3°C 26.3°F-3.2°C 81% 1.2 mph NW1.9 kmh NW 5.8 mph9.3 kmh 30.35 in1027.8 mb 0.00 in0.0 mm 0.00 in0.0 mm 0.00 in0.0 mm
12:30 AM 31.3°F-0.4°C 26.4°F-3.1°C 82% 2.3 mph W3.7 kmh W 5.8 mph9.3 kmh 30.35 in1027.8 mb 0.00 in0.0 mm 0.00 in0.0 mm 0.00 in0.0 mm
12:40 AM 31.3°F-0.4°C 26.4°F-3.1°C 82% 1.0 mph NW1.6 kmh NW 4.7 mph7.6 kmh 30.34 in1027.4 mb 0.00 in0.0 mm 0.00 in0.0 mm 0.00 in0.0 mm
12:50 AM 31.3°F-0.4°C 26.4°F-3.1°C 82% 3.4 mph WNW5.5 kmh WNW 5.1 mph8.2 kmh 30.34 in1027.4 mb 0.00 in0.0 mm 0.00 in0.0 mm 0.00 in0.0 mm
01:00 AM 31.1°F-0.5°C 26.2°F-3.2°C 82% 2.7 mph NW4.3 kmh NW 5.8 mph9.3 kmh 30.33 in1027.1 mb 0.00 in0.0 mm 0.00 in0.0 mm 0.00 in0.0 mm
01:10 AM 30.9°F-0.6°C 26.4°F-3.1°C 83% 2.4 mph NW3.9 kmh NW 6.5 mph10.5 kmh 30.33 in1027.1 mb 0.00 in0.0 mm 0.00 in0.0 mm 0.00 in0.0 mm
01:20 AM 30.7°F-0.7°C 26.2°F-3.2°C 83% 1.4 mph WNW2.3 kmh WNW 6.5 mph10.5 kmh 30.33 in1027.1 mb 0.00 in0.0 mm 0.00 in0.0 mm 0.00 in0.0 mm
01:30 AM 30.6°F-0.8°C 26.0°F-3.3°C 83% 1.0 mph WNW1.6 kmh WNW 5.1 mph8.2 kmh 30.33 in1027.1 mb 0.00 in0.0 mm 0.00 in0.0 mm 0.00 in0.0 mm
01:40 AM 30.4°F-0.9°C 25.8°F-3.4°C 83% 0.6 mph NNW1.0 kmh NNW 2.9 mph4.7 kmh 30.33 in1027.1 mb 0.00 in0.0 mm 0.00 in0.0 mm 0.00 in0.0 mm
01:50 AM 30.4°F-0.9°C 25.8°F-3.4°C 83% 2.6 mph NE4.2 kmh NE 9.2 mph14.8 kmh 30.33 in1027.1 mb 0.00 in0.0 mm 0.00 in0.0 mm 0.00 in0.0 mm
02:00 AM 30.0°F-1.1°C 25.5°F-3.6°C 83% 4.5 mph WNW7.2 kmh WNW 6.7 mph10.8 kmh 30.32 in1026.8 mb 0.00 in0.0 mm 0.00 in0.0 mm 0.00 in0.0 mm
02:02 AM 30.6°F-0.8°C 30.6°F-0.8°C 100% 2.0 mph WNW3.2 kmh WNW 6.7 mph10.8 kmh 30.33 in1027.1 mb 0.00 in0.0 mm 0.00 in0.0 mm 0.00 in0.0 mm
02:10 AM 29.8°F-1.2°C 29.8°F-1.2°C 100% 4.6 mph NW7.4 kmh NW 6.7 mph10.8 kmh 30.32 in1026.8 mb 0.00 in0.0 mm 0.00 in0.0 mm 0.00 in0.0 mm
02:20 AM 29.7°F-1.3°C 29.7°F-1.3°C 100% 1.0 mph NW1.6 kmh NW 4.7 mph7.6 kmh 30.32 in1026.8 mb 0.00 in0.0 mm 0.00 in0.0 mm 0.00 in0.0 mm
02:30 AM 29.5°F-1.4°C 29.5°F-1.4°C 100% 2.9 mph N4.7 kmh N 5.8 mph9.3 kmh 30.32 in1026.8 mb 0.00 in0.0 mm 0.00 in0.0 mm 0.00 in0.0 mm
02:40 AM 29.5°F-1.4°C 29.5°F-1.4°C 100% 1.2 mph NW1.9 kmh NW 5.6 mph9.0 kmh 30.32 in1026.8 mb 0.00 in0.0 mm 0.00 in0.0 mm 0.00 in0.0 mm
02:50 AM 29.3°F-1.5°C 29.3°F-1.5°C 100% 1.8 mph NW2.9 kmh NW 5.6 mph9.0 kmh 30.32 in1026.8 mb 0.00 in0.0 mm 0.00 in0.0 mm 0.00 in0.0 mm
03:00 AM 29.3°F-1.5°C 29.3°F-1.5°C 100% 0.4 mph N0.6 kmh N 1.8 mph2.9 kmh 30.31 in1026.4 mb 0.00 in0.0 mm 0.00 in0.0 mm 0.00 in0.0 mm
03:10 AM 29.3°F-1.5°C 29.3°F-1.5°C 100% 3.4 mph NNW5.5 kmh NNW 4.9 mph7.9 kmh 30.31 in1026.4 mb 0.00 in0.0 mm 0.00 in0.0 mm 0.00 in0.0 mm
03:20 AM 29.3°F-1.5°C 29.3°F-1.5°C 100% 1.1 mph NW1.8 kmh NW 4.9 mph7.9 kmh 30.31 in1026.4 mb 0.00 in0.0 mm 0.00 in0.0 mm 0.00 in0.0 mm
03:30 AM 29.1°F-1.6°C 29.1°F-1.6°C 100% Calm Calm -- 30.30 in1026.1 mb 0.00 in0.0 mm 0.00 in0.0 mm 0.00 in0.0 mm
03:40 AM 29.1°F-1.6°C 29.1°F-1.6°C 100% 1.4 mph NNW2.3 kmh NNW 4.7 mph7.6 kmh 30.30 in1026.1 mb 0.00 in0.0 mm 0.00 in0.0 mm 0.00 in0.0 mm
03:50 AM 29.1°F-1.6°C 29.1°F-1.6°C 100% 1.1 mph N1.8 kmh N 3.4 mph5.5 kmh 30.30 in1026.1 mb 0.00 in0.0 mm 0.00 in0.0 mm 0.00 in0.0 mm
04:00 AM 29.1°F-1.6°C 29.1°F-1.6°C 100% 0.8 mph WNW1.3 kmh WNW 3.6 mph5.8 kmh 30.30 in1026.1 mb 0.00 in0.0 mm 0.00 in0.0 mm 0.00 in0.0 mm
04:10 AM 29.1°F-1.6°C 29.1°F-1.6°C 100% 2.9 mph WNW4.7 kmh WNW 4.3 mph6.9 kmh 30.30 in1026.1 mb 0.00 in0.0 mm 0.00 in0.0 mm 0.00 in0.0 mm
04:20 AM 28.9°F-1.7°C 28.9°F-1.7°C 100% 1.9 mph NW3.1 kmh NW 4.0 mph6.4 kmh 30.30 in1026.1 mb 0.00 in0.0 mm 0.00 in0.0 mm 0.00 in0.0 mm
04:30 AM 28.8°F-1.8°C 28.8°F-1.8°C 100% 0.7 mph NNW1.1 kmh NNW 3.1 mph5.0 kmh 30.30 in1026.1 mb 0.00 in0.0 mm 0.00 in0.0 mm 0.00 in0.0 mm
04:40 AM 28.6°F-1.9°C 28.6°F-1.9°C 100% Calm Calm -- 30.30 in1026.1 mb 0.00 in0.0 mm 0.00 in0.0 mm 0.00 in0.0 mm
04:50 AM 28.6°F-1.9°C 28.6°F-1.9°C 100% Calm Calm -- 30.30 in1026.1 mb 0.00 in0.0 mm 0.00 in0.0 mm 0.00 in0.0 mm
05:00 AM 28.6°F-1.9°C 28.6°F-1.9°C 100% 0.3 mph WNW0.5 kmh WNW 1.6 mph2.6 kmh 30.30 in1026.1 mb 0.00 in0.0 mm 0.00 in0.0 mm 0.00 in0.0 mm
05:10 AM 28.2°F-2.1°C 28.2°F-2.1°C 100% Calm Calm -- 30.30 in1026.1 mb 0.00 in0.0 mm 0.00 in0.0 mm 0.00 in0.0 mm
05:20 AM 28.2°F-2.1°C 28.2°F-2.1°C 100% Calm Calm -- 30.30 in1026.1 mb 0.00 in0.0 mm 0.00 in0.0 mm 0.00 in0.0 mm
05:30 AM 28.2°F-2.1°C 28.2°F-2.1°C 100% Calm Calm -- 30.30 in1026.1 mb 0.00 in0.0 mm 0.00 in0.0 mm 0.00 in0.0 mm
05:40 AM 28.2°F-2.1°C 28.2°F-2.1°C 100% 2.0 mph NE3.2 kmh NE 7.2 mph11.6 kmh 30.30 in1026.1 mb 0.00 in0.0 mm 0.00 in0.0 mm 0.00 in0.0 mm
05:50 AM 28.4°F-2.0°C 28.4°F-2.0°C 100% 1.5 mph E2.4 kmh E 6.0 mph9.7 kmh 30.30 in1026.1 mb 0.00 in0.0 mm 0.00 in0.0 mm 0.00 in0.0 mm
06:00 AM 28.6°F-1.9°C 28.6°F-1.9°C 100% 0.4 mph ENE0.6 kmh ENE 6.0 mph9.7 kmh 30.30 in1026.1 mb 0.00 in0.0 mm 0.00 in0.0 mm 0.00 in0.0 mm
06:10 AM 28.8°F-1.8°C 28.8°F-1.8°C 100% 1.6 mph ENE2.6 kmh ENE 6.3 mph10.1 kmh 30.30 in1026.1 mb 0.00 in0.0 mm 0.00 in0.0 mm 0.00 in0.0 mm
06:20 AM 28.8°F-1.8°C 28.8°F-1.8°C 100% 2.8 mph E4.5 kmh E 3.1 mph5.0 kmh 30.29 in1025.7 mb 0.00 in0.0 mm 0.00 in0.0 mm 0.00 in0.0 mm
06:30 AM 28.8°F-1.8°C 28.8°F-1.8°C 100% 1.2 mph SW1.9 kmh SW 3.6 mph5.8 kmh 30.29 in1025.7 mb 0.00 in0.0 mm 0.00 in0.0 mm 0.00 in0.0 mm
06:40 AM 28.8°F-1.8°C 28.8°F-1.8°C 100% 1.2 mph W1.9 kmh W 3.1 mph5.0 kmh 30.30 in1026.1 mb 0.00 in0.0 mm 0.00 in0.0 mm 0.00 in0.0 mm
06:50 AM 28.8°F-1.8°C 28.8°F-1.8°C 100% Calm Calm -- 30.30 in1026.1 mb 0.00 in0.0 mm 0.00 in0.0 mm 0.00 in0.0 mm
07:00 AM 28.9°F-1.7°C 28.9°F-1.7°C 100% 0.3 mph NW0.5 kmh NW 5.1 mph8.2 kmh 30.30 in1026.1 mb 0.00 in0.0 mm 0.00 in0.0 mm 0.00 in0.0 mm
07:10 AM 28.9°F-1.7°C 28.9°F-1.7°C 100% 0.9 mph NW1.4 kmh NW 5.1 mph8.2 kmh 30.30 in1026.1 mb 0.00 in0.0 mm 0.00 in0.0 mm 0.00 in0.0 mm
07:20 AM 29.1°F-1.6°C 29.1°F-1.6°C 100% 1.1 mph N1.8 kmh N 2.0 mph3.2 kmh 30.30 in1026.1 mb 0.00 in0.0 mm 0.00 in0.0 mm 0.00 in0.0 mm
07:30 AM 29.1°F-1.6°C 29.1°F-1.6°C 100% Calm Calm -- 30.31 in1026.4 mb 0.00 in0.0 mm 0.00 in0.0 mm 0.00 in0.0 mm
07:40 AM 29.1°F-1.6°C 29.1°F-1.6°C 100% Calm Calm -- 30.31 in1026.4 mb 0.00 in0.0 mm 0.00 in0.0 mm 0.00 in0.0 mm
07:50 AM 29.1°F-1.6°C 29.1°F-1.6°C 100% 3.9 mph S6.3 kmh S 7.4 mph11.9 kmh 30.31 in1026.4 mb 0.00 in0.0 mm 0.00 in0.0 mm 0.00 in0.0 mm
08:00 AM 29.1°F-1.6°C 29.1°F-1.6°C 100% 5.8 mph S9.3 kmh S 9.6 mph15.4 kmh 30.31 in1026.4 mb 0.00 in0.0 mm 0.00 in0.0 mm 0.00 in0.0 mm
08:10 AM 29.3°F-1.5°C 29.3°F-1.5°C 100% 3.3 mph S5.3 kmh S 7.6 mph12.2 kmh 30.31 in1026.4 mb 0.00 in0.0 mm 0.00 in0.0 mm 0.00 in0.0 mm
08:20 AM 29.5°F-1.4°C 29.5°F-1.4°C 100% 1.2 mph SSW1.9 kmh SSW 4.5 mph7.2 kmh 30.32 in1026.8 mb 0.00 in0.0 mm 0.00 in0.0 mm 0.00 in0.0 mm
08:30 AM 29.7°F-1.3°C 29.7°F-1.3°C 100% 0.7 mph N1.1 kmh N 1.6 mph2.6 kmh 30.32 in1026.8 mb 0.00 in0.0 mm 0.00 in0.0 mm 0.00 in0.0 mm
08:40 AM 30.0°F-1.1°C 30.0°F-1.1°C 100% 1.0 mph SE1.6 kmh SE 6.3 mph10.1 kmh 30.32 in1026.8 mb 0.00 in0.0 mm 0.00 in0.0 mm 0.00 in0.0 mm
08:50 AM 30.0°F-1.1°C 30.0°F-1.1°C 100% 1.8 mph SE2.9 kmh SE 6.3 mph10.1 kmh 30.32 in1026.8 mb 0.00 in0.0 mm 0.00 in0.0 mm 0.00 in0.0 mm
09:00 AM 30.0°F-1.1°C 30.0°F-1.1°C 100% 0.2 mph SSW0.3 kmh SSW 1.3 mph2.1 kmh 30.32 in1026.8 mb 0.00 in0.0 mm 0.00 in0.0 mm 0.00 in0.0 mm
09:10 AM 30.2°F-1.0°C 30.2°F-1.0°C 100% 3.1 mph S5.0 kmh S 5.6 mph9.0 kmh 30.32 in1026.8 mb 0.00 in0.0 mm 0.00 in0.0 mm 0.00 in0.0 mm
09:20 AM 30.2°F-1.0°C 30.2°F-1.0°C 100% 4.7 mph E7.6 kmh E 9.4 mph15.1 kmh 30.33 in1027.1 mb 0.00 in0.0 mm 0.00 in0.0 mm 0.00 in0.0 mm
09:30 AM 30.2°F-1.0°C 30.2°F-1.0°C 100% 5.8 mph E9.3 kmh E 8.7 mph14.0 kmh 30.33 in1027.1 mb 0.00 in0.0 mm 0.00 in0.0 mm 0.00 in0.0 mm
09:40 AM 30.2°F-1.0°C 30.2°F-1.0°C 100% 5.6 mph ESE9.0 kmh ESE 8.5 mph13.7 kmh 30.33 in1027.1 mb 0.00 in0.0 mm 0.00 in0.0 mm 0.00 in0.0 mm
09:50 AM 30.7°F-0.7°C 30.7°F-0.7°C 100% 3.9 mph E6.3 kmh E 6.0 mph9.7 kmh 30.33 in1027.1 mb 0.00 in0.0 mm 0.00 in0.0 mm 0.00 in0.0 mm
10:00 AM 31.1°F-0.5°C 31.1°F-0.5°C 100% 4.8 mph SE7.7 kmh SE 6.0 mph9.7 kmh 30.33 in1027.1 mb 0.00 in0.0 mm 0.00 in0.0 mm 0.00 in0.0 mm
10:10 AM 31.1°F-0.5°C 31.1°F-0.5°C 100% 4.1 mph SE6.6 kmh SE 7.2 mph11.6 kmh 30.32 in1026.8 mb 0.00 in0.0 mm 0.00 in0.0 mm 0.00 in0.0 mm
10:20 AM 31.1°F-0.5°C 31.1°F-0.5°C 100% 4.8 mph ESE7.7 kmh ESE 7.8 mph12.6 kmh 30.32 in1026.8 mb 0.00 in0.0 mm 0.00 in0.0 mm 0.00 in0.0 mm
10:30 AM 31.3°F-0.4°C 31.3°F-0.4°C 100% 5.6 mph E9.0 kmh E 6.7 mph10.8 kmh 30.32 in1026.8 mb 0.00 in0.0 mm 0.00 in0.0 mm 0.00 in0.0 mm
10:40 AM 31.3°F-0.4°C 31.3°F-0.4°C 100% 3.2 mph ESE5.1 kmh ESE 6.7 mph10.8 kmh 30.33 in1027.1 mb 0.00 in0.0 mm 0.00 in0.0 mm 0.00 in0.0 mm
10:50 AM 31.3°F-0.4°C 31.3°F-0.4°C 100% 5.6 mph ESE9.0 kmh ESE 8.3 mph13.4 kmh 30.34 in1027.4 mb 0.00 in0.0 mm 0.00 in0.0 mm 0.00 in0.0 mm
11:00 AM 31.6°F-0.2°C 31.6°F-0.2°C 100% 8.1 mph ESE13.0 kmh ESE 8.9 mph14.3 kmh 30.34 in1027.4 mb 0.00 in0.0 mm 0.00 in0.0 mm 0.00 in0.0 mm
11:10 AM 31.8°F-0.1°C 31.8°F-0.1°C 100% 7.1 mph SE11.4 kmh SE 9.2 mph14.8 kmh 30.33 in1027.1 mb 0.00 in0.0 mm 0.00 in0.0 mm 0.00 in0.0 mm
11:20 AM 32.7°F0.4°C 32.7°F0.4°C 100% 0.6 mph ESE1.0 kmh ESE 9.2 mph14.8 kmh 30.33 in1027.1 mb 0.00 in0.0 mm 0.00 in0.0 mm 0.00 in0.0 mm
11:30 AM 33.3°F0.7°C 33.3°F0.7°C 100% 2.9 mph ENE4.7 kmh ENE 11.6 mph18.7 kmh 30.33 in1027.1 mb 0.00 in0.0 mm 0.00 in0.0 mm 0.00 in0.0 mm
11:40 AM 33.1°F0.6°C 33.1°F0.6°C 100% 6.6 mph E10.6 kmh E 11.6 mph18.7 kmh 30.33 in1027.1 mb 0.00 in0.0 mm 0.00 in0.0 mm 0.00 in0.0 mm
11:50 AM 33.4°F0.8°C 33.4°F0.8°C 100% 4.3 mph E6.9 kmh E 8.1 mph13.0 kmh 30.33 in1027.1 mb 0.00 in0.0 mm 0.00 in0.0 mm 0.00 in0.0 mm
12:00 PM 35.2°F1.8°C 35.2°F1.8°C 100% 1.7 mph E2.7 kmh E 4.0 mph6.4 kmh 30.33 in1027.1 mb 0.00 in0.0 mm 0.00 in0.0 mm 0.00 in0.0 mm
12:10 PM 35.8°F2.1°C 35.8°F2.1°C 100% 2.2 mph E3.5 kmh E 5.4 mph8.7 kmh 30.32 in1026.8 mb 0.00 in0.0 mm 0.00 in0.0 mm 0.00 in0.0 mm
12:20 PM 35.8°F2.1°C 35.8°F2.1°C 100% 2.7 mph E4.3 kmh E 7.4 mph11.9 kmh 30.32 in1026.8 mb 0.00 in0.0 mm 0.00 in0.0 mm 0.00 in0.0 mm
12:30 PM 36.3°F2.4°C 36.3°F2.4°C 100% 4.3 mph E6.9 kmh E 7.4 mph11.9 kmh 30.32 in1026.8 mb 0.00 in0.0 mm 0.00 in0.0 mm 0.00 in0.0 mm
12:40 PM 36.3°F2.4°C 36.3°F2.4°C 100% 2.0 mph E3.2 kmh E 6.9 mph11.1 kmh 30.32 in1026.8 mb 0.00 in0.0 mm 0.00 in0.0 mm 0.00 in0.0 mm
12:50 PM 37.4°F3.0°C 37.4°F3.0°C 100% 0.4 mph SE0.6 kmh SE 4.9 mph7.9 kmh 30.32 in1026.8 mb 0.00 in0.0 mm 0.00 in0.0 mm 0.00 in0.0 mm
01:00 PM 35.8°F2.1°C 35.8°F2.1°C 100% 2.2 mph ESE3.5 kmh ESE 4.9 mph7.9 kmh 30.31 in1026.4 mb 0.00 in0.0 mm 0.00 in0.0 mm 0.00 in0.0 mm
01:10 PM 36.0°F2.2°C 36.0°F2.2°C 100% Calm Calm -- 30.31 in1026.4 mb 0.00 in0.0 mm 0.00 in0.0 mm 0.00 in0.0 mm
01:20 PM 36.7°F2.6°C 36.7°F2.6°C 100% 0.4 mph SSW0.6 kmh SSW 2.2 mph3.5 kmh 30.31 in1026.4 mb 0.00 in0.0 mm 0.00 in0.0 mm 0.00 in0.0 mm
01:30 PM 38.3°F3.5°C 38.3°F3.5°C 100% Calm Calm -- 30.30 in1026.1 mb 0.00 in0.0 mm 0.00 in0.0 mm 0.00 in0.0 mm
01:40 PM 37.9°F3.3°C 37.9°F3.3°C 100% 1.3 mph NE2.1 kmh NE 4.9 mph7.9 kmh 30.30 in1026.1 mb 0.00 in0.0 mm 0.00 in0.0 mm 0.00 in0.0 mm
01:50 PM 37.6°F3.1°C 37.6°F3.1°C 100% 2.3 mph E3.7 kmh E 6.5 mph10.5 kmh 30.30 in1026.1 mb 0.00 in0.0 mm 0.00 in0.0 mm 0.00 in0.0 mm
02:00 PM 37.9°F3.3°C 37.9°F3.3°C 100% 2.0 mph E3.2 kmh E 6.9 mph11.1 kmh 30.30 in1026.1 mb 0.00 in0.0 mm 0.00 in0.0 mm 0.00 in0.0 mm
02:10 PM 39.9°F4.4°C 39.9°F4.4°C 100% 1.6 mph S2.6 kmh S 4.0 mph6.4 kmh 30.30 in1026.1 mb 0.00 in0.0 mm 0.00 in0.0 mm 0.00 in0.0 mm
02:20 PM 38.8°F3.8°C 38.8°F3.8°C 100% 0.8 mph N1.3 kmh N 4.0 mph6.4 kmh 30.30 in1026.1 mb 0.00 in0.0 mm 0.00 in0.0 mm 0.00 in0.0 mm
02:30 PM 38.5°F3.6°C 38.5°F3.6°C 100% Calm Calm -- 30.30 in1026.1 mb 0.00 in0.0 mm 0.00 in0.0 mm 0.00 in0.0 mm
02:40 PM 37.6°F3.1°C 37.6°F3.1°C 100% Calm Calm -- 30.30 in1026.1 mb 0.00 in0.0 mm 0.00 in0.0 mm 0.00 in0.0 mm
02:50 PM 36.7°F2.6°C 36.7°F2.6°C 100% 5.4 mph SSE8.7 kmh SSE 6.9 mph11.1 kmh 30.30 in1026.1 mb 0.00 in0.0 mm 0.00 in0.0 mm 0.00 in0.0 mm
03:00 PM 36.7°F2.6°C 36.7°F2.6°C 100% 4.2 mph WSW6.8 kmh WSW 6.0 mph9.7 kmh 30.30 in1026.1 mb 0.00 in0.0 mm 0.00 in0.0 mm 0.00 in0.0 mm
03:10 PM 36.5°F2.5°C 36.5°F2.5°C 100% 1.7 mph SSW2.7 kmh SSW 8.3 mph13.4 kmh 30.30 in1026.1 mb 0.00 in0.0 mm 0.00 in0.0 mm 0.00 in0.0 mm
03:20 PM 36.3°F2.4°C 36.3°F2.4°C 100% 1.2 mph WSW1.9 kmh WSW 6.0 mph9.7 kmh 30.31 in1026.4 mb 0.00 in0.0 mm 0.00 in0.0 mm 0.00 in0.0 mm
03:30 PM 36.0°F2.2°C 36.0°F2.2°C 100% 0.4 mph ESE0.6 kmh ESE 1.6 mph2.6 kmh 30.31 in1026.4 mb 0.00 in0.0 mm 0.00 in0.0 mm 0.00 in0.0 mm
03:40 PM 35.8°F2.1°C 35.8°F2.1°C 100% Calm Calm -- 30.30 in1026.1 mb 0.00 in0.0 mm 0.00 in0.0 mm 0.00 in0.0 mm
03:50 PM 35.4°F1.9°C 35.4°F1.9°C 100% Calm Calm -- 30.31 in1026.4 mb 0.00 in0.0 mm 0.00 in0.0 mm 0.00 in0.0 mm
04:00 PM 35.2°F1.8°C 35.2°F1.8°C 100% 1.7 mph E2.7 kmh E 10.1 mph16.3 kmh 30.31 in1026.4 mb 0.00 in0.0 mm 0.00 in0.0 mm 0.00 in0.0 mm
04:10 PM 35.4°F1.9°C 35.4°F1.9°C 100% 2.1 mph ENE3.4 kmh ENE 10.1 mph16.3 kmh 30.31 in1026.4 mb 0.00 in0.0 mm 0.00 in0.0 mm 0.00 in0.0 mm
04:20 PM 36.1°F2.3°C 36.1°F2.3°C 100% 0.2 mph S0.3 kmh S 2.5 mph4.0 kmh 30.31 in1026.4 mb 0.00 in0.0 mm 0.00 in0.0 mm 0.00 in0.0 mm
04:30 PM 35.8°F2.1°C 35.8°F2.1°C 100% 3.8 mph E6.1 kmh E 8.9 mph14.3 kmh 30.31 in1026.4 mb 0.00 in0.0 mm 0.00 in0.0 mm 0.00 in0.0 mm
04:40 PM 35.2°F1.8°C 35.2°F1.8°C 100% 2.7 mph E4.3 kmh E 5.8 mph9.3 kmh 30.31 in1026.4 mb 0.00 in0.0 mm 0.00 in0.0 mm 0.00 in0.0 mm
04:50 PM 34.9°F1.6°C 34.9°F1.6°C 100% 0.6 mph E1.0 kmh E 7.4 mph11.9 kmh 30.32 in1026.8 mb 0.00 in0.0 mm 0.00 in0.0 mm 0.00 in0.0 mm
05:00 PM 34.3°F1.3°C 34.3°F1.3°C 100% 3.7 mph SE6.0 kmh SE 8.5 mph13.7 kmh 30.31 in1026.4 mb 0.00 in0.0 mm 0.00 in0.0 mm 0.00 in0.0 mm
05:10 PM 34.0°F1.1°C 34.0°F1.1°C 100% 2.9 mph ESE4.7 kmh ESE 7.8 mph12.6 kmh 30.31 in1026.4 mb 0.00 in0.0 mm 0.00 in0.0 mm 0.00 in0.0 mm
05:20 PM 33.4°F0.8°C 33.4°F0.8°C 100% Calm Calm -- 30.31 in1026.4 mb 0.00 in0.0 mm 0.00 in0.0 mm 0.00 in0.0 mm
05:30 PM 33.3°F0.7°C 33.3°F0.7°C 100% 2.7 mph SSE4.3 kmh SSE 6.9 mph11.1 kmh 30.31 in1026.4 mb 0.00 in0.0 mm 0.00 in0.0 mm 0.00 in0.0 mm
05:40 PM 33.1°F0.6°C 33.1°F0.6°C 100% 2.3 mph ESE3.7 kmh ESE 5.1 mph8.2 kmh 30.31 in1026.4 mb 0.00 in0.0 mm 0.00 in0.0 mm 0.00 in0.0 mm
05:50 PM 33.1°F0.6°C 33.1°F0.6°C 100% 1.5 mph ESE2.4 kmh ESE 8.3 mph13.4 kmh 30.32 in1026.8 mb 0.00 in0.0 mm 0.00 in0.0 mm 0.00 in0.0 mm
06:00 PM 33.1°F0.6°C 33.1°F0.6°C 100% 10.9 mph ESE17.5 kmh ESE 14.3 mph23.0 kmh 30.32 in1026.8 mb 0.00 in0.0 mm 0.00 in0.0 mm 0.00 in0.0 mm
06:10 PM 32.9°F0.5°C 32.9°F0.5°C 100% 7.6 mph ESE12.2 kmh ESE 10.5 mph16.9 kmh 30.32 in1026.8 mb 0.00 in0.0 mm 0.00 in0.0 mm 0.00 in0.0 mm
06:20 PM 32.7°F0.4°C 32.7°F0.4°C 100% 6.5 mph ESE10.5 kmh ESE 8.1 mph13.0 kmh 30.32 in1026.8 mb 0.00 in0.0 mm 0.00 in0.0 mm 0.00 in0.0 mm
06:30 PM 32.7°F0.4°C 32.7°F0.4°C 100% 8.5 mph ESE13.7 kmh ESE 12.1 mph19.5 kmh 30.32 in1026.8 mb 0.00 in0.0 mm 0.00 in0.0 mm 0.00 in0.0 mm
06:40 PM 32.7°F0.4°C 32.7°F0.4°C 100% 10.1 mph ESE16.3 kmh ESE 12.8 mph20.6 kmh 30.32 in1026.8 mb 0.00 in0.0 mm 0.00 in0.0 mm 0.00 in0.0 mm
06:50 PM 32.7°F0.4°C 32.7°F0.4°C 100% 9.0 mph ESE14.5 kmh ESE 13.2 mph21.2 kmh 30.32 in1026.8 mb 0.00 in0.0 mm 0.00 in0.0 mm 0.00 in0.0 mm
07:00 PM 32.7°F0.4°C 32.7°F0.4°C 100% 10.5 mph ESE16.9 kmh ESE 13.2 mph21.2 kmh 30.32 in1026.8 mb 0.00 in0.0 mm 0.00 in0.0 mm 0.00 in0.0 mm
07:10 PM 32.5°F0.3°C 32.5°F0.3°C 100% 10.4 mph ESE16.7 kmh ESE 11.2 mph18.0 kmh 30.32 in1026.8 mb 0.00 in0.0 mm 0.00 in0.0 mm 0.00 in0.0 mm
07:20 PM 32.5°F0.3°C 32.5°F0.3°C 100% 9.6 mph E15.4 kmh E 11.9 mph19.2 kmh 30.33 in1027.1 mb 0.00 in0.0 mm 0.00 in0.0 mm 0.00 in0.0 mm
07:30 PM 32.5°F0.3°C 32.5°F0.3°C 100% 9.6 mph ESE15.4 kmh ESE 11.6 mph18.7 kmh 30.32 in1026.8 mb 0.00 in0.0 mm 0.00 in0.0 mm 0.00 in0.0 mm
07:40 PM 32.4°F0.2°C 32.4°F0.2°C 100% 10.1 mph ESE16.3 kmh ESE 10.7 mph17.2 kmh 30.33 in1027.1 mb 0.00 in0.0 mm 0.00 in0.0 mm 0.00 in0.0 mm
07:50 PM 32.2°F0.1°C 32.2°F0.1°C 100% 9.0 mph E14.5 kmh E 11.2 mph18.0 kmh 30.33 in1027.1 mb 0.00 in0.0 mm 0.00 in0.0 mm 0.00 in0.0 mm
08:00 PM 31.8°F-0.1°C 31.8°F-0.1°C 100% 7.8 mph E12.6 kmh E 11.0 mph17.7 kmh 30.33 in1027.1 mb 0.00 in0.0 mm 0.00 in0.0 mm 0.00 in0.0 mm
08:10 PM 32.2°F0.1°C 32.2°F0.1°C 100% 9.3 mph ESE15.0 kmh ESE 11.2 mph18.0 kmh 30.33 in1027.1 mb 0.00 in0.0 mm 0.00 in0.0 mm 0.00 in0.0 mm
08:20 PM 32.2°F0.1°C 32.2°F0.1°C 100% 8.4 mph E13.5 kmh E 11.2 mph18.0 kmh 30.33 in1027.1 mb 0.00 in0.0 mm 0.00 in0.0 mm 0.00 in0.0 mm
08:30 PM 32.2°F0.1°C 32.2°F0.1°C 100% 8.0 mph ESE12.9 kmh ESE 10.1 mph16.3 kmh 30.32 in1026.8 mb 0.00 in0.0 mm 0.00 in0.0 mm 0.00 in0.0 mm
08:40 PM 32.2°F0.1°C 32.2°F0.1°C 100% 8.2 mph ESE13.2 kmh ESE 10.7 mph17.2 kmh 30.32 in1026.8 mb 0.00 in0.0 mm 0.00 in0.0 mm 0.00 in0.0 mm
08:50 PM 32.2°F0.1°C 32.2°F0.1°C 100% 5.3 mph SE8.5 kmh SE 8.1 mph13.0 kmh 30.33 in1027.1 mb 0.00 in0.0 mm 0.00 in0.0 mm 0.00 in0.0 mm
09:00 PM 31.8°F-0.1°C 31.8°F-0.1°C 100% 3.2 mph ESE5.1 kmh ESE 6.9 mph11.1 kmh 30.33 in1027.1 mb 0.00 in0.0 mm 0.00 in0.0 mm 0.00 in0.0 mm
09:10 PM 31.3°F-0.4°C 31.3°F-0.4°C 100% 2.3 mph SE3.7 kmh SE 6.0 mph9.7 kmh 30.32 in1026.8 mb 0.00 in0.0 mm 0.00 in0.0 mm 0.00 in0.0 mm
09:20 PM 31.6°F-0.2°C 31.6°F-0.2°C 100% 1.4 mph SE2.3 kmh SE 8.1 mph13.0 kmh 30.33 in1027.1 mb 0.00 in0.0 mm 0.00 in0.0 mm 0.00 in0.0 mm
09:30 PM 31.6°F-0.2°C 31.6°F-0.2°C 100% 7.2 mph ESE11.6 kmh ESE 9.6 mph15.4 kmh 30.33 in1027.1 mb 0.00 in0.0 mm 0.00 in0.0 mm 0.00 in0.0 mm
09:40 PM 31.6°F-0.2°C 31.6°F-0.2°C 100% 6.6 mph SE10.6 kmh SE 8.3 mph13.4 kmh 30.33 in1027.1 mb 0.00 in0.0 mm 0.00 in0.0 mm 0.00 in0.0 mm
09:50 PM 31.3°F-0.4°C 31.3°F-0.4°C 100% 4.1 mph SE6.6 kmh SE 8.3 mph13.4 kmh 30.32 in1026.8 mb 0.00 in0.0 mm 0.00 in0.0 mm 0.00 in0.0 mm
10:00 PM 31.3°F-0.4°C 31.3°F-0.4°C 100% 7.1 mph E11.4 kmh E 9.4 mph15.1 kmh 30.33 in1027.1 mb 0.00 in0.0 mm 0.00 in0.0 mm 0.00 in0.0 mm
10:10 PM 31.3°F-0.4°C 31.3°F-0.4°C 100% 8.0 mph E12.9 kmh E 9.4 mph15.1 kmh 30.33 in1027.1 mb 0.00 in0.0 mm 0.00 in0.0 mm 0.00 in0.0 mm
10:20 PM 31.3°F-0.4°C 31.3°F-0.4°C 100% 8.0 mph SE12.9 kmh SE 10.1 mph16.3 kmh 30.33 in1027.1 mb 0.00 in0.0 mm 0.00 in0.0 mm 0.00 in0.0 mm
10:30 PM 31.3°F-0.4°C 31.3°F-0.4°C 100% 9.1 mph E14.6 kmh E 11.9 mph19.2 kmh 30.33 in1027.1 mb 0.00 in0.0 mm 0.00 in0.0 mm 0.00 in0.0 mm
10:40 PM 31.3°F-0.4°C 31.3°F-0.4°C 100% 6.1 mph E9.8 kmh E 8.7 mph14.0 kmh 30.33 in1027.1 mb 0.00 in0.0 mm 0.00 in0.0 mm 0.00 in0.0 mm
10:50 PM 30.9°F-0.6°C 30.9°F-0.6°C 100% 3.1 mph ESE5.0 kmh ESE 7.2 mph11.6 kmh 30.33 in1027.1 mb 0.00 in0.0 mm 0.00 in0.0 mm 0.00 in0.0 mm
11:00 PM 30.7°F-0.7°C 30.7°F-0.7°C 100% 2.5 mph ESE4.0 kmh ESE 6.3 mph10.1 kmh 30.33 in1027.1 mb 0.00 in0.0 mm 0.00 in0.0 mm 0.00 in0.0 mm
11:10 PM 31.3°F-0.4°C 31.3°F-0.4°C 100% 7.2 mph ENE11.6 kmh ENE 11.4 mph18.3 kmh 30.33 in1027.1 mb 0.00 in0.0 mm 0.00 in0.0 mm 0.00 in0.0 mm
11:20 PM 31.3°F-0.4°C 31.3°F-0.4°C 100% 6.3 mph ESE10.1 kmh ESE 10.7 mph17.2 kmh 30.33 in1027.1 mb 0.00 in0.0 mm 0.00 in0.0 mm 0.00 in0.0 mm
11:30 PM 31.3°F-0.4°C 31.3°F-0.4°C 100% 8.3 mph ESE13.4 kmh ESE 11.9 mph19.2 kmh 30.32 in1026.8 mb 0.00 in0.0 mm 0.00 in0.0 mm 0.00 in0.0 mm
11:40 PM 31.1°F-0.5°C 31.1°F-0.5°C 100% 7.5 mph ESE12.1 kmh ESE 11.9 mph19.2 kmh 30.33 in1027.1 mb 0.00 in0.0 mm 0.00 in0.0 mm 0.00 in0.0 mm
11:50 PM 31.1°F-0.5°C 31.1°F-0.5°C 100% 6.2 mph E10.0 kmh E 8.3 mph13.4 kmh 30.33 in1027.1 mb 0.00 in0.0 mm 0.00 in0.0 mm 0.00 in0.0 mm